Time;durP1;ratioP1;P1;durP2;ratioP2;P2;SDS_P1;SDS_P2;PMS_P1;PMS_P2;Temp;Humidity;BMP_temperature;BMP_pressure;BME280_temperature;BME280_humidity;BME280_pressure;Samples;Min_cycle;Max_cycle;Signal;HPM_P1;HPM_P2
2023/03/23 00:01:44;;;;;;;9.03;6.10;;;12.00;99.90;;;;;;5023972;28;20197;-90
2023/03/23 00:04:14;;;;;;;10.20;6.30;;;12.00;99.90;;;;;;5024112;28;20245;-90
2023/03/23 00:06:41;;;;;;;12.50;6.60;;;12.00;99.90;;;;;;5030416;28;20239;-90
2023/03/23 00:09:10;;;;;;;11.73;6.60;;;12.00;99.90;;;;;;5046708;28;20197;-90
2023/03/23 00:11:38;;;;;;;10.67;6.33;;;12.00;99.90;;;;;;5059173;28;20197;-91
2023/03/23 00:14:05;;;;;;;13.30;6.27;;;12.00;99.90;;;;;;5043312;28;20243;-90
2023/03/23 00:16:33;;;;;;;12.20;6.20;;;12.00;99.90;;;;;;5042952;28;20209;-90
2023/03/23 00:19:05;;;;;;;20.43;6.70;;;12.00;99.90;;;;;;5042945;28;20217;-91
2023/03/23 00:21:34;;;;;;;9.73;5.70;;;12.00;99.90;;;;;;5043796;28;20231;-90
2023/03/23 00:24:02;;;;;;;9.07;5.67;;;12.00;99.90;;;;;;5035626;28;20232;-92
2023/03/23 00:26:29;;;;;;;13.00;6.20;;;12.20;99.90;;;;;;5040456;28;20241;-90
2023/03/23 00:29:00;;;;;;;9.80;6.07;;;12.00;99.90;;;;;;5044647;28;20193;-92
2023/03/23 00:31:32;;;;;;;11.27;6.17;;;12.00;99.90;;;;;;5044515;28;20205;-91
2023/03/23 00:34:01;;;;;;;9.87;6.97;;;12.00;99.90;;;;;;5043321;28;20232;-90
2023/03/23 00:36:28;;;;;;;11.67;6.17;;;12.00;99.90;;;;;;5035825;28;20212;-91
2023/03/23 00:39:00;;;;;;;7.77;5.53;;;12.10;99.90;;;;;;5043464;28;20198;-91
2023/03/23 00:41:28;;;;;;;11.73;6.10;;;12.00;99.90;;;;;;5060002;28;20216;-91
2023/03/23 00:44:02;;;;;;;11.10;5.70;;;12.10;99.90;;;;;;5038791;28;20228;-91
2023/03/23 00:46:44;;;;;;;8.87;5.50;;;12.00;99.90;;;;;;5037774;28;20201;-92
2023/03/23 00:49:13;;;;;;;11.77;5.83;;;12.10;99.90;;;;;;5040153;28;20213;-91
2023/03/23 00:51:43;;;;;;;10.17;6.03;;;12.10;99.90;;;;;;5035853;28;20209;-91
2023/03/23 00:54:11;;;;;;;9.80;5.60;;;12.10;99.90;;;;;;5039914;28;20226;-91
2023/03/23 00:56:55;;;;;;;10.33;5.20;;;12.10;99.90;;;;;;5039475;28;20217;-92
2023/03/23 00:59:21;;;;;;;9.83;5.63;;;12.10;99.90;;;;;;5035202;28;20236;-92
2023/03/23 01:01:49;;;;;;;6.90;5.17;;;12.00;99.90;;;;;;5020288;28;20205;-91
2023/03/23 01:04:18;;;;;;;9.17;6.00;;;12.00;99.90;;;;;;5019953;28;20206;-91
2023/03/23 01:06:50;;;;;;;9.17;5.43;;;12.00;99.90;;;;;;5018879;28;20217;-92
2023/03/23 01:09:33;;;;;;;7.63;4.90;;;11.90;99.90;;;;;;5023219;28;20201;-91
2023/03/23 01:12:16;;;;;;;10.27;5.43;;;12.00;99.90;;;;;;5037202;28;20638;-90
2023/03/23 01:14:48;;;;;;;9.90;4.97;;;11.90;99.90;;;;;;5037051;28;20209;-90
2023/03/23 01:17:14;;;;;;;8.47;4.40;;;12.00;99.90;;;;;;5036266;28;20199;-91
2023/03/23 01:19:49;;;;;;;9.87;4.90;;;12.00;99.90;;;;;;5040524;28;20258;-91
2023/03/23 01:22:25;;;;;;;7.93;4.73;;;12.00;99.90;;;;;;5036177;28;20319;-91
2023/03/23 01:24:51;;;;;;;6.87;4.00;;;11.90;99.90;;;;;;5034482;28;20185;-91
2023/03/23 01:27:20;;;;;;;7.50;4.30;;;12.00;99.90;;;;;;5047273;28;20657;-90
2023/03/23 01:29:47;;;;;;;7.33;4.43;;;12.00;99.90;;;;;;5046647;28;20243;-91
2023/03/23 01:32:17;;;;;;;11.33;4.73;;;11.90;99.90;;;;;;5031610;28;20200;-91
2023/03/23 01:34:42;;;;;;;6.93;4.40;;;11.90;99.90;;;;;;5041358;28;20220;-91
2023/03/23 01:37:15;;;;;;;7.77;4.43;;;12.00;99.90;;;;;;5045156;28;20204;-90
2023/03/23 01:39:43;;;;;;;9.63;4.80;;;12.00;99.90;;;;;;5044614;28;20197;-90
2023/03/23 01:42:10;;;;;;;7.43;4.40;;;11.90;99.90;;;;;;5037024;28;20558;-91
2023/03/23 01:44:44;;;;;;;11.03;5.53;;;11.90;99.90;;;;;;5033253;28;20208;-89
2023/03/23 01:47:27;;;;;;;9.13;4.83;;;12.00;99.90;;;;;;5038759;28;20864;-91
2023/03/23 01:49:56;;;;;;;8.30;4.87;;;11.90;99.90;;;;;;5024200;28;20190;-89
2023/03/23 01:52:26;;;;;;;6.47;4.43;;;12.00;99.90;;;;;;5027263;28;20202;-90
2023/03/23 01:54:57;;;;;;;6.97;5.40;;;12.00;99.90;;;;;;5036568;28;20256;-91
2023/03/23 01:57:32;;;;;;;7.70;4.77;;;11.90;99.90;;;;;;5044998;28;20714;-92
2023/03/23 02:00:07;;;;;;;10.93;4.87;;;12.00;99.90;;;;;;5045936;28;20232;-91
2023/03/23 02:02:38;;;;;;;8.60;4.53;;;12.00;99.90;;;;;;5047341;28;20205;-91
2023/03/23 02:05:13;;;;;;;7.67;4.13;;;12.00;99.90;;;;;;5046547;28;20300;-91
2023/03/23 02:07:49;;;;;;;10.97;4.67;;;12.00;99.90;;;;;;5037460;28;20278;-91
2023/03/23 02:10:18;;;;;;;6.97;4.40;;;12.00;99.90;;;;;;5033694;28;20207;-91
2023/03/23 02:12:46;;;;;;;5.00;3.83;;;12.10;99.90;;;;;;5026779;28;20252;-90
2023/03/23 02:15:20;;;;;;;7.30;4.27;;;12.00;99.90;;;;;;5035315;28;20197;-91
2023/03/23 02:18:20;;;;;;;6.90;4.20;;;12.00;99.90;;;;;;5032881;28;20208;-91
2023/03/23 02:21:23;;;;;;;7.70;4.50;;;12.00;99.90;;;;;;5046179;28;20195;-91
2023/03/23 02:24:08;;;;;;;7.50;3.83;;;12.00;99.90;;;;;;5042895;28;20213;-90
2023/03/23 02:26:52;;;;;;;5.77;4.10;;;12.00;99.90;;;;;;5028838;28;20247;-90
2023/03/23 02:29:48;;;;;;;6.50;4.37;;;12.10;99.90;;;;;;5032788;28;20205;-90
2023/03/23 02:32:40;;;;;;;7.53;4.40;;;12.10;99.90;;;;;;5045788;28;20220;-89
2023/03/23 02:35:34;;;;;;;6.27;4.20;;;12.10;99.90;;;;;;4993280;28;20201;-88
2023/03/23 02:38:14;;;;;;;6.97;4.37;;;12.20;99.90;;;;;;5037034;28;20208;-92
2023/03/23 02:40:47;;;;;;;7.60;4.60;;;12.10;99.90;;;;;;5047754;28;20193;-90
2023/03/23 02:43:40;;;;;;;7.40;4.37;;;12.10;99.90;;;;;;5046954;28;20225;-89
2023/03/23 02:46:17;;;;;;;9.03;4.43;;;12.10;99.90;;;;;;5046259;28;20280;-90
2023/03/23 02:48:53;;;;;;;7.70;4.60;;;12.10;99.90;;;;;;5045625;28;20215;-90
2023/03/23 02:51:21;;;;;;;6.17;4.57;;;12.10;99.90;;;;;;5030367;28;20212;-91
2023/03/23 02:53:51;;;;;;;6.77;4.77;;;12.10;99.90;;;;;;5025865;28;20322;-90
2023/03/23 02:56:25;;;;;;;7.70;4.50;;;12.20;99.90;;;;;;5025412;28;20205;-91
2023/03/23 02:58:55;;;;;;;7.77;4.30;;;12.20;99.90;;;;;;5039660;28;20220;-90
2023/03/23 03:01:32;;;;;;;6.37;4.37;;;12.30;99.90;;;;;;5026102;28;20202;-91
2023/03/23 03:04:18;;;;;;;7.60;4.80;;;12.30;99.90;;;;;;5035538;28;20277;-91
2023/03/23 03:07:24;;;;;;;7.37;4.70;;;12.30;99.90;;;;;;5040261;28;20245;-89
2023/03/23 03:10:00;;;;;;;6.87;4.30;;;12.30;99.90;;;;;;5055203;28;20631;-90
2023/03/23 03:12:46;;;;;;;6.77;5.13;;;12.30;99.90;;;;;;5041112;28;20209;-89
2023/03/23 03:15:33;;;;;;;7.63;5.07;;;12.30;99.90;;;;;;5041284;28;20215;-90
2023/03/23 03:18:18;;;;;;;8.30;5.07;;;12.30;99.90;;;;;;5040517;28;20213;-90
2023/03/23 03:21:10;;;;;;;7.00;5.40;;;12.30;99.90;;;;;;5033544;28;20246;-90
2023/03/23 03:23:41;;;;;;;7.27;4.70;;;12.30;99.90;;;;;;5020953;28;20210;-89
2023/03/23 03:26:12;;;;;;;9.97;5.40;;;12.30;99.90;;;;;;5022786;28;20249;-90
2023/03/23 03:28:41;;;;;;;9.37;5.27;;;12.30;99.90;;;;;;5020360;28;20186;-91
2023/03/23 03:31:08;;;;;;;9.93;5.20;;;12.40;99.90;;;;;;5019248;28;20202;-90
2023/03/23 03:33:36;;;;;;;6.63;4.90;;;12.30;99.90;;;;;;5020253;28;20217;-91
2023/03/23 03:36:21;;;;;;;9.63;5.23;;;12.40;99.90;;;;;;5032976;28;20193;-89
2023/03/23 03:38:52;;;;;;;7.43;5.00;;;12.40;99.90;;;;;;5032157;28;20205;-91
2023/03/23 03:41:19;;;;;;;8.00;5.30;;;12.50;99.90;;;;;;5042643;28;20240;-88
2023/03/23 03:43:45;;;;;;;7.47;5.47;;;12.40;99.90;;;;;;5038723;28;20201;-91
2023/03/23 03:46:12;;;;;;;6.67;5.10;;;12.40;99.90;;;;;;5027920;28;20240;-90
2023/03/23 03:49:02;;;;;;;9.37;4.87;;;12.40;99.90;;;;;;5034172;28;20210;-90
2023/03/23 03:51:33;;;;;;;6.23;4.90;;;12.40;99.90;;;;;;5038082;28;20233;-91
2023/03/23 03:54:03;;;;;;;7.23;4.83;;;12.40;99.90;;;;;;5042028;28;20403;-90
2023/03/23 03:56:40;;;;;;;11.03;5.00;;;12.50;99.90;;;;;;5039203;28;20204;-91
2023/03/23 03:59:09;;;;;;;9.93;4.63;;;12.40;99.90;;;;;;5042025;28;20205;-91
2023/03/23 04:01:40;;;;;;;8.77;4.57;;;12.50;99.90;;;;;;5038727;28;20209;-89
2023/03/23 04:04:14;;;;;;;7.30;4.63;;;12.50;99.90;;;;;;5080327;28;20993;-74
2023/03/23 04:06:40;;;;;;;7.57;4.10;;;12.50;99.90;;;;;;5078088;28;20588;-73
2023/03/23 04:09:06;;;;;;;6.43;4.00;;;12.50;99.90;;;;;;5078016;28;20192;-73
2023/03/23 04:11:32;;;;;;;10.03;3.93;;;12.50;99.90;;;;;;5076445;28;20273;-73
2023/03/23 04:13:58;;;;;;;8.87;4.60;;;12.50;99.90;;;;;;5061878;28;20261;-72
2023/03/23 04:16:26;;;;;;;9.93;4.17;;;12.50;99.90;;;;;;5078564;28;20572;-73
2023/03/23 04:18:51;;;;;;;9.00;4.53;;;12.60;99.90;;;;;;5076309;28;20229;-73
2023/03/23 04:21:17;;;;;;;6.90;4.07;;;12.60;99.90;;;;;;5076818;28;20208;-73
2023/03/23 04:23:43;;;;;;;7.30;4.40;;;12.60;99.90;;;;;;5078811;28;20314;-74
2023/03/23 04:26:12;;;;;;;7.83;3.97;;;12.60;99.90;;;;;;5095914;28;20199;-74
2023/03/23 04:28:39;;;;;;;6.20;3.83;;;12.60;99.90;;;;;;5060990;28;20257;-73
2023/03/23 04:31:04;;;;;;;6.83;4.03;;;12.60;99.90;;;;;;5076767;28;20240;-74
2023/03/23 04:33:30;;;;;;;6.37;4.07;;;12.60;99.90;;;;;;5077163;28;20641;-72
2023/03/23 04:36:00;;;;;;;6.87;4.07;;;12.60;99.90;;;;;;5079011;28;20350;-74
2023/03/23 04:38:27;;;;;;;6.90;4.30;;;12.60;99.90;;;;;;5064653;28;20199;-73
2023/03/23 04:40:54;;;;;;;5.63;3.90;;;12.60;99.90;;;;;;5079705;28;20204;-74
2023/03/23 04:43:22;;;;;;;6.57;4.00;;;12.60;99.90;;;;;;5076437;28;20602;-75
2023/03/23 04:45:59;;;;;;;7.07;4.20;;;12.60;99.90;;;;;;5081076;28;20196;-74
2023/03/23 04:48:27;;;;;;;6.77;4.40;;;12.70;99.90;;;;;;5077892;28;20212;-74
2023/03/23 04:50:54;;;;;;;10.23;4.53;;;12.70;99.90;;;;;;5077856;28;20204;-73
2023/03/23 04:53:20;;;;;;;8.23;4.20;;;12.60;99.90;;;;;;5078893;28;20196;-73
2023/03/23 04:55:47;;;;;;;7.97;3.90;;;12.70;99.90;;;;;;5081615;28;20212;-75
2023/03/23 04:58:14;;;;;;;10.67;4.37;;;12.60;99.90;;;;;;5077738;28;20197;-73
2023/03/23 05:00:40;;;;;;;6.03;4.00;;;12.70;99.90;;;;;;5078877;28;20196;-74
2023/03/23 05:03:07;;;;;;;9.63;3.83;;;12.70;99.90;;;;;;5074201;28;20323;-73
2023/03/23 05:05:34;;;;;;;6.67;4.43;;;12.70;99.90;;;;;;5073354;28;20200;-74
2023/03/23 05:08:00;;;;;;;9.47;4.07;;;12.60;99.90;;;;;;5077878;28;20196;-74
2023/03/23 05:10:26;;;;;;;7.40;3.57;;;12.70;99.90;;;;;;5078256;28;20224;-73
2023/03/23 05:12:53;;;;;;;6.97;3.57;;;12.60;99.90;;;;;;5079732;28;20348;-74
2023/03/23 05:15:19;;;;;;;4.57;3.50;;;12.70;99.90;;;;;;5061441;28;20228;-73
2023/03/23 05:17:45;;;;;;;8.37;3.67;;;12.70;99.90;;;;;;5063741;28;20637;-74
2023/03/23 05:20:12;;;;;;;6.30;2.97;;;12.70;99.90;;;;;;5063454;28;20213;-73
2023/03/23 05:22:38;;;;;;;5.20;3.23;;;12.70;99.90;;;;;;5061272;28;20756;-73
2023/03/23 05:25:08;;;;;;;8.43;4.00;;;12.70;99.90;;;;;;5046150;28;20615;-74
2023/03/23 05:27:35;;;;;;;5.77;3.53;;;12.70;99.90;;;;;;5065913;28;20701;-74
2023/03/23 05:30:01;;;;;;;7.87;3.07;;;12.70;99.90;;;;;;5063703;28;20266;-73
2023/03/23 05:32:30;;;;;;;6.17;3.10;;;12.70;99.90;;;;;;5063501;28;20217;-74
2023/03/23 05:35:00;;;;;;;10.33;3.80;;;12.70;99.90;;;;;;5062535;28;20208;-75
2023/03/23 05:37:33;;;;;;;7.23;3.00;;;12.70;99.90;;;;;;5061651;28;20564;-74
2023/03/23 05:40:05;;;;;;;5.50;3.17;;;12.70;99.90;;;;;;5061386;28;20208;-73
2023/03/23 05:42:34;;;;;;;8.07;2.90;;;12.70;99.90;;;;;;5060067;28;20221;-74
2023/03/23 05:45:01;;;;;;;6.17;2.73;;;12.70;99.90;;;;;;5064529;28;20580;-74
2023/03/23 05:47:27;;;;;;;8.03;2.80;;;12.70;99.90;;;;;;5067649;28;20216;-73
2023/03/23 05:49:53;;;;;;;6.60;2.77;;;12.70;99.90;;;;;;5064083;28;20189;-74
2023/03/23 05:52:19;;;;;;;12.40;3.20;;;12.70;99.90;;;;;;5068588;28;20675;-74
2023/03/23 05:54:45;;;;;;;8.87;3.20;;;12.70;99.90;;;;;;5054908;28;20204;-73
2023/03/23 05:57:11;;;;;;;9.57;3.20;;;12.70;99.90;;;;;;5067706;28;20197;-73
2023/03/23 05:59:37;;;;;;;13.03;3.67;;;12.60;99.90;;;;;;5060492;28;20207;-73
2023/03/23 06:02:04;;;;;;;5.20;3.07;;;12.60;99.90;;;;;;5062574;28;20780;-74
2023/03/23 06:04:33;;;;;;;9.13;3.50;;;12.60;99.90;;;;;;5072496;28;20431;-74
2023/03/23 06:07:01;;;;;;;9.37;3.37;;;12.60;99.90;;;;;;5062385;28;20688;-73
2023/03/23 06:09:27;;;;;;;10.13;3.40;;;12.60;99.90;;;;;;5060934;28;20190;-75
2023/03/23 06:11:53;;;;;;;6.50;3.00;;;12.70;99.90;;;;;;5067590;28;20185;-73
2023/03/23 06:14:19;;;;;;;8.60;3.13;;;12.70;99.90;;;;;;5061625;28;20217;-73
2023/03/23 06:16:44;;;;;;;7.37;3.20;;;12.70;99.90;;;;;;5059529;28;20201;-73
2023/03/23 06:19:11;;;;;;;7.60;3.20;;;12.70;99.90;;;;;;5063811;28;20213;-74
2023/03/23 06:21:37;;;;;;;5.70;3.33;;;12.60;99.90;;;;;;5070951;28;20207;-77
2023/03/23 06:24:04;;;;;;;12.03;3.70;;;12.70;99.90;;;;;;5067493;28;20235;-74
2023/03/23 06:26:33;;;;;;;9.63;3.67;;;12.60;99.90;;;;;;5062844;28;20198;-74
2023/03/23 06:28:59;;;;;;;8.67;3.53;;;12.60;99.90;;;;;;5057831;28;20216;-74
2023/03/23 06:31:27;;;;;;;6.50;2.37;;;12.60;99.90;;;;;;5066428;28;20189;-73
2023/03/23 06:33:53;;;;;;;7.57;2.93;;;12.40;99.90;;;;;;5066936;28;20221;-75
2023/03/23 06:36:19;;;;;;;11.30;3.43;;;12.30;99.90;;;;;;5059805;28;20200;-74
2023/03/23 06:38:45;;;;;;;13.03;3.33;;;12.30;99.90;;;;;;5066867;28;20575;-74
2023/03/23 06:41:11;;;;;;;13.93;4.07;;;12.10;99.90;;;;;;5064848;28;20208;-74
2023/03/23 06:43:39;;;;;;;9.07;3.83;;;12.00;99.90;;;;;;5061518;28;20307;-73
2023/03/23 06:46:05;;;;;;;11.80;4.73;;;11.90;99.90;;;;;;5067188;28;20193;-74
2023/03/23 06:48:31;;;;;;;10.90;4.40;;;11.80;99.90;;;;;;5068715;28;20303;-72
2023/03/23 06:50:57;;;;;;;6.63;3.13;;;11.70;99.90;;;;;;5066859;28;20201;-73
2023/03/23 06:53:23;;;;;;;11.50;3.53;;;11.50;99.90;;;;;;5063061;28;20208;-72
2023/03/23 06:55:49;;;;;;;8.47;3.73;;;11.50;99.90;;;;;;5065644;28;20197;-73
2023/03/23 06:58:15;;;;;;;12.77;3.83;;;11.40;99.90;;;;;;5068547;28;20860;-73
2023/03/23 07:00:40;;;;;;;10.80;4.27;;;11.30;99.90;;;;;;5064225;28;20212;-74
2023/03/23 07:03:06;;;;;;;9.77;4.47;;;11.30;99.90;;;;;;5060644;28;20237;-74
2023/03/23 07:05:34;;;;;;;15.10;5.50;;;11.40;99.90;;;;;;5062893;28;20604;-74
2023/03/23 07:08:02;;;;;;;13.13;5.30;;;11.40;99.90;;;;;;5065250;28;20200;-73
2023/03/23 07:10:28;;;;;;;8.73;5.20;;;11.40;99.90;;;;;;5062205;28;22226;-74
2023/03/23 07:12:54;;;;;;;16.73;4.90;;;11.40;99.90;;;;;;5060527;28;20203;-74
2023/03/23 07:15:20;;;;;;;13.33;5.37;;;11.40;99.90;;;;;;5059866;28;20189;-75
2023/03/23 07:17:47;;;;;;;12.20;5.23;;;11.50;99.90;;;;;;5060442;28;20228;-73
2023/03/23 07:20:14;;;;;;;11.57;5.17;;;11.50;99.90;;;;;;5061101;28;20295;-76
2023/03/23 07:22:40;;;;;;;12.93;5.77;;;11.50;99.90;;;;;;5061557;28;20290;-73
2023/03/23 07:25:07;;;;;;;13.37;6.03;;;11.60;99.90;;;;;;5060546;28;20205;-73
2023/03/23 07:27:33;;;;;;;13.63;5.97;;;11.60;99.90;;;;;;5061152;28;20205;-74
2023/03/23 07:29:59;;;;;;;14.37;6.50;;;11.60;99.90;;;;;;5062606;28;20212;-73
2023/03/23 07:32:25;;;;;;;15.80;5.77;;;11.60;99.90;;;;;;5060097;28;20213;-76
2023/03/23 07:34:51;;;;;;;15.70;6.30;;;11.60;99.90;;;;;;5060220;28;20212;-75
2023/03/23 07:37:17;;;;;;;13.07;6.10;;;11.70;99.90;;;;;;5056124;28;20201;-75
2023/03/23 07:39:43;;;;;;;16.30;5.87;;;11.70;99.90;;;;;;5058284;28;20587;-75
2023/03/23 07:42:09;;;;;;;11.63;5.57;;;11.70;99.90;;;;;;5060979;28;20291;-75
2023/03/23 07:44:35;;;;;;;11.27;5.43;;;11.70;99.90;;;;;;5061810;28;20232;-73
2023/03/23 07:47:02;;;;;;;12.70;5.43;;;11.70;99.90;;;;;;5058616;28;20252;-75
2023/03/23 07:49:30;;;;;;;12.40;5.10;;;11.70;99.90;;;;;;5062864;28;20224;-74
2023/03/23 07:51:57;;;;;;;12.73;5.10;;;11.70;99.90;;;;;;5051633;28;20280;-74
2023/03/23 07:54:25;;;;;;;10.93;4.93;;;11.70;99.90;;;;;;5071339;28;20196;-76
2023/03/23 07:56:51;;;;;;;11.43;4.73;;;11.70;99.90;;;;;;5070090;28;20280;-75
2023/03/23 07:59:17;;;;;;;7.77;3.90;;;11.70;99.90;;;;;;5070459;28;20745;-75
2023/03/23 08:01:43;;;;;;;10.53;3.87;;;11.80;99.90;;;;;;5069656;28;20612;-75
2023/03/23 08:04:08;;;;;;;12.37;4.37;;;11.80;99.90;;;;;;5051372;28;20756;-73
2023/03/23 08:06:34;;;;;;;6.77;3.13;;;11.80;99.90;;;;;;5068456;28;20201;-74
2023/03/23 08:09:01;;;;;;;9.77;2.83;;;11.80;99.90;;;;;;5063713;28;20209;-75
2023/03/23 08:11:27;;;;;;;9.20;3.30;;;11.90;99.90;;;;;;5069666;28;20557;-76
2023/03/23 08:13:53;;;;;;;9.50;2.43;;;11.80;99.90;;;;;;5051943;28;20201;-74
2023/03/23 08:16:19;;;;;;;11.43;3.37;;;11.90;99.90;;;;;;5070346;28;20197;-75
2023/03/23 08:18:46;;;;;;;10.53;3.57;;;11.90;99.90;;;;;;5065571;28;20217;-74
2023/03/23 08:21:12;;;;;;;10.50;3.17;;;11.90;99.90;;;;;;5061659;28;20217;-74
2023/03/23 08:23:38;;;;;;;9.80;2.40;;;12.00;99.90;;;;;;5061822;28;20299;-73
2023/03/23 08:26:08;;;;;;;15.13;3.20;;;12.00;99.90;;;;;;5069440;28;20250;-75
2023/03/23 08:28:34;;;;;;;20.87;3.70;;;12.00;99.90;;;;;;5059116;28;20193;-73
2023/03/23 08:31:06;;;;;;;8.30;3.40;;;12.00;99.90;;;;;;5060668;28;20246;-74
2023/03/23 08:33:33;;;;;;;8.10;3.00;;;12.10;99.90;;;;;;5060556;28;20220;-73
2023/03/23 08:36:00;;;;;;;9.87;3.13;;;12.00;99.90;;;;;;5061033;28;20201;-75
2023/03/23 08:38:27;;;;;;;9.77;3.30;;;12.00;99.90;;;;;;5066752;28;20213;-75
2023/03/23 08:40:58;;;;;;;9.60;3.30;;;11.90;99.90;;;;;;5061481;28;20582;-74
2023/03/23 08:43:24;;;;;;;12.67;3.20;;;11.90;99.90;;;;;;5057600;28;20225;-74
2023/03/23 08:45:51;;;;;;;12.03;3.40;;;11.90;99.90;;;;;;5058850;28;20596;-74
2023/03/23 08:48:17;;;;;;;9.43;3.47;;;11.90;99.90;;;;;;5056255;28;20292;-75
2023/03/23 08:50:43;;;;;;;8.30;3.63;;;11.90;99.90;;;;;;5063493;28;20208;-75
2023/03/23 08:53:09;;;;;;;10.10;3.20;;;12.00;99.90;;;;;;5063996;28;20215;-75
2023/03/23 08:55:35;;;;;;;7.10;2.70;;;12.00;99.90;;;;;;5066751;28;20753;-75
2023/03/23 08:58:01;;;;;;;6.53;3.13;;;12.00;99.90;;;;;;5065475;28;20192;-75
2023/03/23 09:00:27;;;;;;;7.63;2.60;;;12.00;99.90;;;;;;5061321;28;20212;-74
2023/03/23 09:02:54;;;;;;;10.83;3.43;;;12.10;99.90;;;;;;5057522;28;20408;-75
2023/03/23 09:05:24;;;;;;;7.20;2.97;;;12.20;99.90;;;;;;5064519;28;20196;-74
2023/03/23 09:07:51;;;;;;;6.60;3.07;;;12.30;99.90;;;;;;5047995;28;20532;-74
2023/03/23 09:10:17;;;;;;;8.07;3.27;;;12.40;99.90;;;;;;5065516;28;20288;-75
2023/03/23 09:12:44;;;;;;;9.47;3.80;;;12.40;99.90;;;;;;5067518;28;20585;-74
2023/03/23 09:15:13;;;;;;;8.50;3.97;;;12.40;99.90;;;;;;5061115;28;20613;-74
2023/03/23 09:17:44;;;;;;;9.47;4.10;;;12.40;99.90;;;;;;5061628;28;20684;-74
2023/03/23 09:20:13;;;;;;;8.23;3.90;;;12.40;99.90;;;;;;5073451;28;20296;-75
2023/03/23 09:22:44;;;;;;;9.93;4.13;;;12.40;99.90;;;;;;5063122;28;20224;-74
2023/03/23 09:25:13;;;;;;;12.07;4.50;;;12.50;99.90;;;;;;5060432;28;20243;-74
2023/03/23 09:27:40;;;;;;;8.90;3.90;;;12.50;99.90;;;;;;5060721;28;20293;-74
2023/03/23 09:30:12;;;;;;;7.10;3.33;;;12.40;99.90;;;;;;5063281;28;20706;-75
2023/03/23 09:32:38;;;;;;;10.37;4.13;;;12.50;99.90;;;;;;5077757;28;20237;-74
2023/03/23 09:35:11;;;;;;;5.73;3.50;;;12.60;99.90;;;;;;5061229;28;20254;-74
2023/03/23 09:37:39;;;;;;;10.73;3.63;;;12.90;99.90;;;;;;5061177;28;20205;-74
2023/03/23 09:40:09;;;;;;;8.73;3.10;;;13.20;99.90;;;;;;5060192;28;20283;-73
2023/03/23 09:42:56;;;;;;;8.60;2.77;;;13.40;99.90;;;;;;5062724;28;20224;-75
2023/03/23 09:45:31;;;;;;;10.50;3.00;;;13.60;99.90;;;;;;5062638;28;20209;-74
2023/03/23 09:48:18;;;;;;;8.40;3.07;;;13.60;99.90;;;;;;5062657;28;20574;-74
2023/03/23 09:50:47;;;;;;;7.63;2.97;;;13.70;99.90;;;;;;5066408;28;20219;-73
2023/03/23 09:53:19;;;;;;;9.07;2.77;;;13.70;99.90;;;;;;5057521;28;20211;-73
2023/03/23 09:55:45;;;;;;;6.77;2.60;;;13.80;99.90;;;;;;5071198;28;20205;-73
2023/03/23 09:58:24;;;;;;;8.07;3.33;;;14.10;99.90;;;;;;5065768;28;20212;-73
2023/03/23 10:00:59;;;;;;;9.00;3.58;;;14.30;99.90;;;;;;5063851;28;20212;-74
2023/03/23 10:03:37;;;;;;;10.30;2.95;;;14.50;99.90;;;;;;5060072;28;20247;-74
2023/03/23 10:06:02;;;;;;;10.70;3.63;;;14.70;99.90;;;;;;5067941;28;20208;-74
2023/03/23 10:08:32;;;;;;;8.73;2.65;;;14.70;99.90;;;;;;5062486;28;20219;-76
2023/03/23 10:11:17;;;;;;;10.68;2.72;;;14.90;99.90;;;;;;5058084;28;20204;-75
2023/03/23 10:13:58;;;;;;;10.02;2.92;;;15.10;99.90;;;;;;5061138;28;20203;-75
2023/03/23 10:16:38;;;;;;;9.70;2.50;;;15.30;99.90;;;;;;5065586;28;20193;-73
2023/03/23 10:19:20;;;;;;;9.77;2.83;;;15.30;99.90;;;;;;5059448;28;20293;-73
2023/03/23 10:21:54;;;;;;;7.80;2.97;;;15.20;99.90;;;;;;5059830;28;20188;-74
2023/03/23 10:24:30;;;;;;;9.07;3.00;;;15.10;99.90;;;;;;5059245;28;20816;-74
2023/03/23 10:27:21;;;;;;;6.68;2.45;;;15.10;99.90;;;;;;5056929;28;20212;-75
2023/03/23 10:29:52;;;;;;;8.10;2.75;;;15.20;99.90;;;;;;5061943;28;20201;-73
2023/03/23 10:32:21;;;;;;;9.52;2.85;;;15.30;99.90;;;;;;5057299;28;20597;-76
2023/03/23 10:34:55;;;;;;;5.85;2.53;;;15.30;99.90;;;;;;5061199;28;20205;-74
2023/03/23 10:37:38;;;;;;;6.70;2.80;;;15.10;99.90;;;;;;5061982;28;20196;-74
2023/03/23 10:40:09;;;;;;;10.18;3.00;;;15.20;99.90;;;;;;5055553;28;20209;-73
2023/03/23 10:42:38;;;;;;;10.55;2.28;;;15.20;99.90;;;;;;5066502;28;20229;-74
2023/03/23 10:45:25;;;;;;;7.97;2.42;;;15.40;99.90;;;;;;5059755;28;20331;-72
2023/03/23 10:48:15;;;;;;;8.85;2.40;;;15.60;99.90;;;;;;5061612;28;20288;-73
2023/03/23 10:50:43;;;;;;;8.40;2.78;;;15.70;99.90;;;;;;5059851;28;20207;-73
2023/03/23 10:53:19;;;;;;;7.18;2.25;;;15.70;99.90;;;;;;5062301;28;20757;-74
2023/03/23 10:55:46;;;;;;;8.82;2.40;;;15.50;99.90;;;;;;5066978;28;20188;-74
2023/03/23 10:58:24;;;;;;;7.80;2.55;;;15.50;99.90;;;;;;5058792;28;20205;-74
2023/03/23 11:00:50;;;;;;;10.85;3.28;;;15.50;99.90;;;;;;5063521;28;20262;-73
2023/03/23 11:03:17;;;;;;;11.07;2.60;;;15.50;99.90;;;;;;5056647;28;20251;-73
2023/03/23 11:05:44;;;;;;;12.10;2.63;;;15.60;99.90;;;;;;5062267;28;20204;-75
2023/03/23 11:08:26;;;;;;;7.88;2.72;;;15.70;99.90;;;;;;5064384;28;20209;-74
2023/03/23 11:10:54;;;;;;;10.80;2.65;;;15.80;99.90;;;;;;5058280;28;20251;-72
2023/03/23 11:13:23;;;;;;;8.73;2.33;;;15.80;99.90;;;;;;5060081;28;20273;-74
2023/03/23 11:15:50;;;;;;;11.85;2.65;;;15.50;99.90;;;;;;5051803;28;20284;-73
2023/03/23 11:18:46;;;;;;;9.65;2.83;;;15.50;99.90;;;;;;5061525;28;20220;-73
2023/03/23 11:21:14;;;;;;;9.65;2.42;;;15.60;99.90;;;;;;5064149;28;20247;-73
2023/03/23 11:23:43;;;;;;;14.27;2.72;;;15.90;99.90;;;;;;5062588;28;20289;-73
2023/03/23 11:26:16;;;;;;;8.32;2.30;;;16.10;99.90;;;;;;5068394;28;20200;-72
2023/03/23 11:28:51;;;;;;;8.02;2.25;;;16.20;99.90;;;;;;5064340;28;20200;-73
2023/03/23 11:31:21;;;;;;;9.07;2.25;;;16.20;99.90;;;;;;5060405;28;20208;-73
2023/03/23 11:33:55;;;;;;;8.00;2.47;;;16.20;99.90;;;;;;5062200;28;20220;-73
2023/03/23 11:36:30;;;;;;;6.28;2.30;;;16.20;99.90;;;;;;5063469;28;20290;-72
2023/03/23 11:38:57;;;;;;;8.43;2.63;;;16.10;99.90;;;;;;5060304;28;20243;-72
2023/03/23 11:41:24;;;;;;;9.27;2.70;;;15.90;99.90;;;;;;5044360;28;20237;-73
2023/03/23 11:43:52;;;;;;;13.68;2.70;;;15.90;99.90;;;;;;5052272;28;20300;-73
2023/03/23 11:46:48;;;;;;;9.40;3.00;;;16.10;99.90;;;;;;5059077;28;20205;-73
2023/03/23 11:49:28;;;;;;;10.18;2.75;;;16.30;99.90;;;;;;5062156;28;20259;-73
2023/03/23 11:52:00;;;;;;;9.20;2.33;;;16.40;99.90;;;;;;5063784;28;20208;-73
2023/03/23 11:54:33;;;;;;;8.95;2.10;;;16.40;99.90;;;;;;5065716;28;20695;-73
2023/03/23 11:56:59;;;;;;;8.95;2.60;;;16.30;99.90;;;;;;5056382;28;20208;-73
2023/03/23 11:59:43;;;;;;;8.95;3.20;;;16.20;99.90;;;;;;5057035;28;20292;-74
2023/03/23 12:02:12;;;;;;;9.52;2.58;;;16.30;99.90;;;;;;5060990;28;20360;-74
2023/03/23 12:04:50;;;;;;;10.20;2.47;;;16.30;99.90;;;;;;5055155;28;20213;-73
2023/03/23 12:07:31;;;;;;;10.68;2.40;;;16.40;99.90;;;;;;5056288;28;20274;-73
2023/03/23 12:10:10;;;;;;;10.43;3.47;;;16.40;99.90;;;;;;5061534;28;20207;-72
2023/03/23 12:12:40;;;;;;;9.57;2.30;;;16.40;99.90;;;;;;5058878;28;20299;-72
2023/03/23 12:15:22;;;;;;;10.80;3.17;;;16.40;99.90;;;;;;5056577;28;20240;-72
2023/03/23 12:18:22;;;;;;;11.43;2.30;;;16.20;99.90;;;;;;5058007;28;20224;-73
2023/03/23 12:21:19;;;;;;;9.75;2.55;;;16.20;99.90;;;;;;5043730;28;20208;-72
2023/03/23 12:24:06;;;;;;;9.52;2.60;;;16.30;99.90;;;;;;5064616;28;20255;-73
2023/03/23 12:26:37;;;;;;;7.63;2.10;;;16.20;99.90;;;;;;5065305;28;20203;-73
2023/03/23 12:29:12;;;;;;;7.53;2.50;;;16.20;99.90;;;;;;5062738;28;20692;-71
2023/03/23 12:31:59;;;;;;;10.02;2.38;;;16.20;99.90;;;;;;5068295;28;20239;-73
2023/03/23 12:34:41;;;;;;;7.88;2.05;;;16.20;99.90;;;;;;5064120;28;20231;-73
2023/03/23 12:37:16;;;;;;;7.47;2.10;;;16.00;99.90;;;;;;5065002;28;20200;-72
2023/03/23 12:40:07;;;;;;;13.57;2.97;;;15.70;99.90;;;;;;5064881;28;20235;-74
2023/03/23 12:42:52;;;;;;;9.27;2.22;;;15.50;99.90;;;;;;5066065;28;20218;-75
2023/03/23 12:45:41;;;;;;;11.30;2.63;;;15.10;99.90;;;;;;5061489;28;20212;-74
2023/03/23 12:48:24;;;;;;;9.63;2.17;;;14.70;99.90;;;;;;5063953;28;20217;-74
2023/03/23 12:51:15;;;;;;;8.73;2.60;;;14.30;99.90;;;;;;5063710;28;20238;-73
2023/03/23 12:54:01;;;;;;;8.53;2.27;;;14.20;99.90;;;;;;5062857;28;20209;-73
2023/03/23 12:56:37;;;;;;;12.33;2.77;;;14.30;99.90;;;;;;5079323;28;20212;-73
2023/03/23 12:59:44;;;;;;;10.60;2.70;;;14.50;99.90;;;;;;5061672;28;20580;-72
2023/03/23 13:02:27;;;;;;;8.63;2.70;;;14.70;99.90;;;;;;5062846;28;20224;-72
2023/03/23 13:05:29;;;;;;;7.83;2.67;;;14.80;99.90;;;;;;5065303;28;20695;-73
2023/03/23 13:08:03;;;;;;;11.03;2.47;;;14.90;99.90;;;;;;5064762;28;20212;-74